Terminal Aerodrome Forecast
Issued by NWS Corpus Christi, TX

Home | Current Version | Previous Version | Text Only | Print | Product List | Glossary On
Versions: 1 2 3 4 5 6 7 8 9 10 11 12 13 14 15
417
FTUS44 KCRP 300527
TAFVCT
TAF
KVCT 300527Z 3006/0106 34021G30KT P6SM VCTS OVC025CB
      TEMPO 3006/3008 5SM -TSRA BR SCT025CB BKN035
     FM300800 34015KT P6SM BKN060
     FM301500 30011KT P6SM SKC=

USA.gov is the U.S. government's official web portal to all federal, state and local government web resources and services.